KSNY

Sidney Municipal / Lloyd W Carr Field Airport

Sidney, Nebraska, USA
KSNY 151120Z 1512/1612 18007KT 6SM BR SCT050 BKN150 FM151300 18009KT P6SM FEW100 FM152100 20011KT P6SM FEW050 SCT250 FM152300 06008KT P6SM SCT250
Issued Valid From Valid To
Aug-15 @ 11:20 UTC
(an hour ago)
Aug-15 @ 12:00 UTC
(40 minutes ago)
Aug-16 @ 12:00 UTC
(in 23 hours)
Aug-15 @ 12:00 to Aug-15 @ 13:00
KSNY 151120Z 1512/1612 18007KT 6SM BR SCT050 BKN150
Wind Visibility Clouds Conditions
180° at 7 knots 6 miles
  • Scattered at 5,000' AGL
  • Broken at 15,000' AGL
  • Mist
From Aug-15 @ 13:00 to Aug-15 @ 21:00
FM151300 18009KT P6SM FEW100
Wind Visibility Clouds
180° at 9 knots Greater than 6 miles
  • Few at 10,000' AGL
From Aug-15 @ 21:00 to Aug-15 @ 23:00
FM152100 20011KT P6SM FEW050 SCT250
Wind Visibility Clouds
200° at 11 knots Greater than 6 miles
  • Few at 5,000' AGL
  • Scattered at 25,000' AGL
From Aug-15 @ 23:00 to Aug-16 @ 12:00
FM152300 06008KT P6SM SCT250
Wind Visibility Clouds
60° at 8 knots Greater than 6 miles
  • Scattered at 25,000' AGL
KSNY 151120Z 1512/1612 18007KT 6SM BR SCT050 BKN150 FM151300 18009KT P6SM FEW100 FM152100 20011KT P6SM FEW050 SCT250 FM152300 06008KT P6SM SCT250
Issued Aug-15 @ 11:20 UTC
(an hour ago)
Valid From Aug-15 @ 12:00 UTC
(40 minutes ago)
Valid To Aug-16 @ 12:00 UTC
(in 23 hours)
Aug-15 @ 12:00 - Aug-15 @ 13:00
Wind Visibility
180° at 7 knots 6 miles
Clouds
  • Scattered at 5,000' AGL
  • Broken at 15,000' AGL
Conditions
  • Mist
From Aug-15 @ 13:00 - Aug-15 @ 21:00
Wind Visibility
180° at 9 knots Greater than 6 miles
Clouds
  • Few at 10,000' AGL
From Aug-15 @ 21:00 - Aug-15 @ 23:00
Wind Visibility
200° at 11 knots Greater than 6 miles
Clouds
  • Few at 5,000' AGL
  • Scattered at 25,000' AGL
From Aug-15 @ 23:00 - Aug-16 @ 12:00
Wind Visibility
60° at 8 knots Greater than 6 miles
Clouds
  • Scattered at 25,000' AGL